Time;durP1;ratioP1;P1;durP2;ratioP2;P2;SDS_P1;SDS_P2;PMS_P1;PMS_P2;Temp;Humidity;BMP_temperature;BMP_pressure;BME280_temperature;BME280_humidity;BME280_pressure;Samples;Min_cycle;Max_cycle;Signal;HPM_P1;HPM_P2
2023/09/28 00:01:35;;;;;;;17.42;12.45;;;;;;;-145.63;52.69;39255.00;5024107;28;20025;-66
2023/09/28 00:04:01;;;;;;;18.05;11.70;;;;;;;-145.63;52.79;39286.31;5037716;28;20033;-66
2023/09/28 00:06:27;;;;;;;18.88;12.63;;;;;;;-145.63;52.97;39272.63;5043791;28;20068;-66
2023/09/28 00:08:52;;;;;;;18.23;13.77;;;;;;;-145.63;53.06;39294.13;5028884;28;20029;-66
2023/09/28 00:11:18;;;;;;;15.95;13.50;;;;;;;-145.63;53.49;39296.09;5026927;28;20083;-68
2023/09/28 00:13:43;;;;;;;17.58;13.00;;;;;;;-145.63;52.94;39272.63;5037242;28;20036;-68
2023/09/28 00:16:09;;;;;;;18.48;12.57;;;;;;;-145.63;53.00;39313.69;5037981;28;20041;-68
2023/09/28 00:18:36;;;;;;;14.65;12.38;;;;;;;-145.63;52.92;39317.59;5022857;28;20037;-67
2023/09/28 00:21:02;;;;;;;15.75;12.40;;;;;;;-145.63;53.49;39425.16;5011614;28;20022;-68
2023/09/28 00:23:28;;;;;;;18.42;12.80;;;;;;;-145.63;52.78;39300.00;5029439;28;20222;-67
2023/09/28 00:25:54;;;;;;;17.80;12.35;;;;;;;-145.63;52.73;39315.66;5011155;28;22268;-69
2023/09/28 00:28:19;;;;;;;18.77;12.40;;;;;;;-145.63;53.12;39311.72;5022490;28;20299;-68
2023/09/28 00:30:48;;;;;;;16.50;11.93;;;;;;;-145.63;53.04;39286.31;5033201;28;20029;-66
2023/09/28 00:33:14;;;;;;;14.80;11.75;;;;;;;-145.63;53.17;39298.03;5032224;28;20030;-67
2023/09/28 00:35:40;;;;;;;17.00;12.15;;;;;;;-145.63;53.45;39290.22;5029134;28;20033;-67
2023/09/28 00:38:06;;;;;;;15.48;12.68;;;;;;;-145.63;53.70;39292.19;5044096;28;20036;-66
2023/09/28 00:40:31;;;;;;;16.92;13.00;;;;;;;-145.63;53.06;39341.06;5034157;28;20017;-67
2023/09/28 00:42:59;;;;;;;20.20;13.43;;;;;;;-145.63;53.32;39305.88;5020142;28;20026;-66
2023/09/28 00:45:27;;;;;;;17.58;13.15;;;;;;;-145.63;53.15;38566.66;5009496;28;20046;-67
2023/09/28 00:47:58;;;;;;;16.35;13.20;;;;;;;-145.63;52.98;39337.16;5010324;28;20061;-67
2023/09/28 00:50:24;;;;;;;18.17;13.23;;;;;;;-145.63;52.83;39321.50;5029888;28;20033;-66
2023/09/28 00:52:58;;;;;;;16.63;13.38;;;;;;;-145.63;53.04;39300.00;5031827;28;20345;-65
2023/09/28 00:55:24;;;;;;;18.38;13.55;;;;;;;-145.63;53.37;39327.38;5025716;28;20042;-66
2023/09/28 00:57:51;;;;;;;17.15;13.70;;;;;;;-145.63;53.15;39255.00;5017608;28;20085;-67
2023/09/28 01:02:51;;;;;;;15.90;13.50;;;;;;;-145.63;52.98;39249.16;5046101;28;20025;-68
2023/09/28 01:05:22;;;;;;;18.25;13.68;;;;;;;-145.63;52.67;39348.88;5006815;28;20026;-67
2023/09/28 01:07:48;;;;;;;18.92;14.10;;;;;;;-145.63;53.20;39286.31;5022276;28;20029;-67
2023/09/28 01:10:20;;;;;;;18.15;13.55;;;;;;;-145.63;52.86;39276.53;5014469;28;20034;-68
2023/09/28 01:12:47;;;;;;;20.90;14.73;;;;;;;-145.63;52.80;39301.94;5013643;28;20026;-67
2023/09/28 01:15:13;;;;;;;16.17;12.60;;;;;;;-145.63;52.74;39286.31;5022827;28;20034;-67
2023/09/28 01:17:39;;;;;;;18.38;13.10;;;;;;;-145.63;52.95;39301.94;5005857;28;20038;-65
2023/09/28 01:22:42;;;;;;;22.52;14.23;;;;;;;-145.63;53.44;39307.81;5020730;28;20038;-65
2023/09/28 01:25:08;;;;;;;21.40;14.50;;;;;;;-145.63;53.27;39317.59;5025668;28;20033;-69
2023/09/28 01:27:34;;;;;;;19.25;13.75;;;;;;;-145.63;53.50;39305.88;5019784;28;20077;-69
2023/09/28 01:29:59;;;;;;;20.73;13.57;;;;;;;-145.63;53.15;39300.00;5005710;28;20026;-68
2023/09/28 01:32:25;;;;;;;22.23;14.18;;;;;;;-145.63;53.75;39296.09;5022653;28;20041;-69
2023/09/28 01:34:51;;;;;;;18.77;14.10;;;;;;;-145.63;53.50;39317.59;5025264;28;20022;-68
2023/09/28 01:37:21;;;;;;;18.63;14.38;;;;;;;-145.63;53.07;39301.94;5013652;28;20198;-66
2023/09/28 01:39:46;;;;;;;18.08;15.35;;;;;;;-145.63;53.17;39286.31;5012681;28;20036;-66
2023/09/28 01:42:12;;;;;;;22.98;15.40;;;;;;;-145.63;53.71;39323.47;5022438;28;20218;-67
2023/09/28 01:44:37;;;;;;;22.92;14.95;;;;;;;-145.63;53.71;39294.13;5005653;28;20034;-65
2023/09/28 01:47:03;;;;;;;19.50;14.93;;;;;;;-145.63;53.57;39327.38;5005624;28;20238;-67
2023/09/28 01:49:28;;;;;;;19.00;14.90;;;;;;;-145.63;53.64;39323.47;5018345;28;20045;-66
2023/09/28 01:51:54;;;;;;;19.63;15.65;;;;;;;-145.63;53.76;39303.91;5029821;28;20044;-68
2023/09/28 01:54:20;;;;;;;21.42;15.30;;;;;;;-145.63;53.55;39286.31;5021643;28;20486;-66
2023/09/28 01:56:45;;;;;;;18.98;14.93;;;;;;;-145.63;54.08;39311.72;5005277;28;20041;-66
2023/09/28 01:59:11;;;;;;;23.85;15.98;;;;;;;-145.63;53.63;39325.41;5023869;28;20037;-66
2023/09/28 02:01:36;;;;;;;21.50;15.90;;;;;;;-145.63;53.63;39335.19;5024669;28;20179;-66
2023/09/28 02:04:04;;;;;;;24.55;15.75;;;;;;;-145.63;53.96;39350.84;5015355;28;20026;-66
2023/09/28 02:06:29;;;;;;;22.00;15.88;;;;;;;-145.63;53.81;39284.34;5009653;28;20022;-66
2023/09/28 02:08:55;;;;;;;23.83;15.88;;;;;;;-145.63;53.68;39307.81;5024527;28;20259;-67
2023/09/28 02:11:21;;;;;;;22.77;16.45;;;;;;;-145.63;53.89;39282.41;5022175;28;20033;-67
2023/09/28 02:13:46;;;;;;;21.33;15.85;;;;;;;-145.63;54.00;39300.00;5024412;28;20242;-67
2023/09/28 02:16:13;;;;;;;20.23;14.82;;;;;;;-145.63;54.65;39311.72;5014003;28;20045;-67
2023/09/28 02:18:42;;;;;;;23.13;14.20;;;;;;;-145.63;54.12;39305.88;5010540;28;20025;-67
2023/09/28 02:21:14;;;;;;;20.73;15.40;;;;;;;-145.63;54.19;39282.41;5022862;28;20025;-68
2023/09/28 02:23:40;;;;;;;;;;;;;;;-145.63;54.77;39333.25;5005180;28;20030;-67
2023/09/28 02:26:06;;;;;;;23.15;15.63;;;;;;;-145.63;54.28;39309.78;5026899;28;19925;-67
2023/09/28 02:28:32;;;;;;;24.77;15.32;;;;;;;-145.63;54.07;39303.91;5030826;28;20104;-67
2023/09/28 02:31:05;;;;;;;24.50;16.08;;;;;;;-145.63;54.47;39294.13;5026638;28;20025;-66
2023/09/28 02:33:31;;;;;;;24.05;15.73;;;;;;;-145.63;54.26;39317.59;5024680;28;20028;-69
2023/09/28 02:35:57;;;;;;;20.67;14.65;;;;;;;-145.63;54.32;39298.03;5023039;28;20045;-67
2023/09/28 02:38:23;;;;;;;24.95;16.17;;;;;;;-145.63;54.84;39341.06;5024081;28;20030;-67
2023/09/28 02:40:48;;;;;;;24.70;16.48;;;;;;;-145.63;54.74;39298.03;5024238;28;20022;-68
2023/09/28 02:43:14;;;;;;;30.40;16.27;;;;;;;-145.63;54.97;39337.16;5013624;28;20042;-67
2023/09/28 02:45:40;;;;;;;21.23;15.68;;;;;;;-145.63;54.59;39290.22;5004126;28;20026;-66
2023/09/28 02:48:05;;;;;;;25.30;16.08;;;;;;;-145.63;54.59;39286.31;5005186;28;20034;-66
2023/09/28 02:50:31;;;;;;;27.15;17.05;;;;;;;-145.63;54.70;39311.72;5024663;28;20032;-68
2023/09/28 02:52:57;;;;;;;26.13;16.73;;;;;;;-145.63;54.32;39313.69;5027418;28;20049;-67
2023/09/28 02:55:22;;;;;;;28.38;16.83;;;;;;;-145.63;54.25;39301.94;5012325;28;20026;-67
2023/09/28 02:57:49;;;;;;;24.15;15.90;;;;;;;-145.63;54.59;39331.28;5010927;28;20129;-67
2023/09/28 03:02:47;;;;;;;20.50;16.13;;;;;;;-145.63;54.59;39339.13;5033885;28;20033;-67
2023/09/28 03:05:16;;;;;;;20.90;15.00;;;;;;;-145.63;54.70;39325.41;5025012;28;20030;-68
2023/09/28 03:07:42;;;;;;;23.05;15.45;;;;;;;-145.63;54.61;39319.56;5009425;28;20041;-68
2023/09/28 03:10:10;;;;;;;23.45;15.77;;;;;;;-145.63;54.80;39344.97;5013371;28;20038;-68
2023/09/28 03:12:36;;;;;;;22.63;16.10;;;;;;;-145.63;55.37;39335.19;5037352;28;20030;-67
2023/09/28 03:15:09;;;;;;;23.15;15.55;;;;;;;-145.63;55.20;39325.41;5022196;28;20196;-68
2023/09/28 03:17:35;;;;;;;23.73;16.20;;;;;;;-145.63;55.08;39335.19;5003260;28;20353;-68
2023/09/28 03:20:03;;;;;;;21.08;16.23;;;;;;;-145.63;55.03;39288.25;5020199;28;20034;-68
2023/09/28 03:22:30;;;;;;;26.60;15.82;;;;;;;-145.63;54.86;39341.06;5011144;28;20022;-68
2023/09/28 03:24:55;;;;;;;22.70;15.77;;;;;;;-145.63;55.03;39337.16;5011352;28;20052;-68
2023/09/28 03:27:21;;;;;;;24.85;15.68;;;;;;;-145.63;54.82;39307.81;5022402;28;20322;-69
2023/09/28 03:29:47;;;;;;;20.80;14.85;;;;;;;-145.63;55.10;39301.94;5023243;28;20041;-67
2023/09/28 03:32:13;;;;;;;25.70;16.13;;;;;;;-145.63;55.17;39339.13;5032402;28;20026;-67
2023/09/28 03:34:38;;;;;;;24.48;16.20;;;;;;;-145.63;54.93;39358.66;5023252;28;20040;-67
2023/09/28 03:37:04;;;;;;;24.95;15.88;;;;;;;-145.63;55.17;39301.94;5014593;28;20041;-67
2023/09/28 03:39:30;;;;;;;19.70;15.05;;;;;;;-145.63;55.36;39307.81;5007460;28;20034;-68
2023/09/28 03:41:56;;;;;;;23.65;15.82;;;;;;;-145.63;55.26;39341.06;5023158;28;20253;-67
2023/09/28 03:44:21;;;;;;;22.00;15.15;;;;;;;-145.63;55.23;39327.38;5003991;28;20033;-67
2023/09/28 03:46:47;;;;;;;25.25;15.40;;;;;;;-145.63;55.47;39317.59;5003500;28;20322;-66
2023/09/28 03:49:12;;;;;;;20.25;14.68;;;;;;;-145.63;54.93;39325.41;5013267;28;20033;-67
2023/09/28 03:51:38;;;;;;;21.95;15.27;;;;;;;-145.63;55.24;39333.25;5028638;28;20542;-68
2023/09/28 03:54:04;;;;;;;20.88;14.80;;;;;;;-145.63;55.36;39337.16;5022738;28;20034;-68
2023/09/28 03:56:29;;;;;;;21.13;14.55;;;;;;;-145.63;55.45;39327.38;5003316;28;20026;-67
2023/09/28 03:58:55;;;;;;;20.67;15.23;;;;;;;-145.63;55.42;39327.38;5019135;28;20036;-66
2023/09/28 04:01:21;;;;;;;19.92;14.32;;;;;;;-145.63;55.42;39319.56;5023106;28;20210;-64
2023/09/28 04:03:46;;;;;;;21.17;14.38;;;;;;;-145.63;55.54;39315.66;5016866;28;20068;-65
2023/09/28 04:06:13;;;;;;;19.83;14.30;;;;;;;-145.63;55.55;39301.94;5004574;28;20030;-65
2023/09/28 04:08:39;;;;;;;20.77;14.20;;;;;;;-145.63;55.26;39329.34;5022878;28;20037;-65
2023/09/28 04:11:05;;;;;;;21.92;14.35;;;;;;;-145.63;55.33;39294.13;5036160;28;20040;-63
2023/09/28 04:13:30;;;;;;;21.00;14.77;;;;;;;-145.63;55.48;39317.59;5030636;28;20104;-64
2023/09/28 04:15:56;;;;;;;25.25;14.45;;;;;;;-145.63;55.95;39307.81;5016297;28;20034;-65
2023/09/28 04:18:22;;;;;;;21.25;15.48;;;;;;;-145.63;56.13;39305.88;5020195;28;20029;-65
2023/09/28 04:20:48;;;;;;;20.48;14.07;;;;;;;-145.63;55.66;39321.50;5003377;28;20023;-67
2023/09/28 04:23:13;;;;;;;21.67;14.57;;;;;;;-145.63;55.79;39309.78;4999953;28;20096;-69
2023/09/28 04:25:39;;;;;;;19.90;14.43;;;;;;;-145.63;55.67;39309.78;5015399;28;20056;-67
2023/09/28 04:28:05;;;;;;;19.08;13.20;;;;;;;-145.63;55.82;39309.78;5014298;28;20022;-68
2023/09/28 04:30:31;;;;;;;23.70;15.02;;;;;;;-145.63;55.52;39296.09;5009891;28;20049;-63
2023/09/28 04:32:56;;;;;;;22.13;14.82;;;;;;;-145.63;55.15;39315.66;5033053;28;20320;-64
2023/09/28 04:35:22;;;;;;;26.52;14.45;;;;;;;-145.63;55.30;39325.41;5027468;28;20032;-66
2023/09/28 04:37:48;;;;;;;23.40;13.75;;;;;;;-145.63;55.55;39245.25;5012106;28;20093;-63
2023/09/28 04:40:14;;;;;;;21.95;14.30;;;;;;;-145.63;55.56;39301.94;5015775;28;20033;-65
2023/09/28 04:42:40;;;;;;;22.40;14.38;;;;;;;-145.63;55.57;39311.72;5021347;28;20030;-62
2023/09/28 04:45:07;;;;;;;19.33;13.55;;;;;;;-145.63;55.32;39290.22;5006864;28;20030;-63
2023/09/28 04:47:33;;;;;;;23.83;13.80;;;;;;;-145.63;55.21;39317.59;5006362;28;20330;-66
2023/09/28 04:50:00;;;;;;;25.20;14.43;;;;;;;-145.63;55.66;39364.53;5021200;28;20044;-65
2023/09/28 04:52:26;;;;;;;27.65;15.40;;;;;;;-145.63;54.90;39309.78;5032225;28;20397;-65
2023/09/28 04:54:52;;;;;;;22.33;14.70;;;;;;;-145.63;54.77;39294.13;5022109;28;20048;-64
2023/09/28 04:57:20;;;;;;;23.33;15.35;;;;;;;-145.63;54.69;39262.84;5020881;28;20017;-63
2023/09/28 04:59:45;;;;;;;28.98;14.93;;;;;;;-145.63;54.36;39253.06;5025424;28;20049;-63
2023/09/28 05:02:11;;;;;;;21.85;14.20;;;;;;;-145.63;54.97;39296.09;5021129;28;20033;-64
2023/09/28 05:04:37;;;;;;;26.58;15.32;;;;;;;-145.63;54.07;39286.31;5024822;28;20034;-64
2023/09/28 05:07:04;;;;;;;23.55;14.32;;;;;;;-145.63;54.48;39264.78;5022587;28;20236;-65
2023/09/28 05:09:30;;;;;;;27.90;14.88;;;;;;;-145.63;54.39;39280.44;5022225;28;20030;-64
2023/09/28 05:11:59;;;;;;;18.20;12.98;;;;;;;-145.63;54.38;39241.31;5032123;28;20114;-64
2023/09/28 05:14:26;;;;;;;25.15;12.82;;;;;;;-145.63;53.69;39239.38;5026046;28;20026;-63
2023/09/28 05:16:53;;;;;;;17.60;11.23;;;;;;;-145.63;54.00;39256.97;5011282;28;20058;-65
2023/09/28 05:19:19;;;;;;;14.35;10.43;;;;;;;-145.63;53.34;39182.66;5015753;28;20054;-63
2023/09/28 05:21:45;;;;;;;16.92;10.57;;;;;;;-145.63;52.90;39251.09;5020315;28;20079;-65
2023/09/28 05:24:10;;;;;;;12.27;10.15;;;;;;;-145.63;52.47;39215.91;5024914;28;20045;-63
2023/09/28 05:26:37;;;;;;;17.48;11.13;;;;;;;-145.63;52.45;39204.16;5025149;28;20053;-64
2023/09/28 05:29:04;;;;;;;18.83;10.65;;;;;;;-145.63;52.58;39206.13;5009494;28;20074;-64
2023/09/28 05:31:30;;;;;;;14.80;10.80;;;;;;;-145.63;52.99;39178.75;5026643;28;20040;-63
2023/09/28 05:33:56;;;;;;;17.33;10.98;;;;;;;-145.63;52.42;39210.03;5038186;28;20322;-64
2023/09/28 05:36:22;;;;;;;15.27;11.10;;;;;;;-145.63;51.91;39172.88;5021709;28;20040;-64
2023/09/28 05:38:48;;;;;;;18.75;10.75;;;;;;;-145.63;51.92;39168.97;5005809;28;20034;-64
2023/09/28 05:41:13;;;;;;;17.48;11.30;;;;;;;-145.63;51.50;39184.59;5021994;28;20025;-65
2023/09/28 05:43:39;;;;;;;17.45;11.55;;;;;;;-145.63;51.25;39170.91;5012762;28;20318;-64
2023/09/28 05:46:05;;;;;;;17.83;10.95;;;;;;;-145.63;51.24;39237.41;5005209;28;20029;-63
2023/09/28 05:48:30;;;;;;;20.88;10.35;;;;;;;-145.63;50.77;39208.06;5008023;28;20030;-64
2023/09/28 05:50:56;;;;;;;14.55;10.57;;;;;;;-145.63;50.73;39198.31;5029999;28;20290;-64
2023/09/28 05:53:22;;;;;;;14.45;10.60;;;;;;;-145.63;50.57;39176.78;5025328;28;20026;-64
2023/09/28 05:55:51;;;;;;;12.65;9.80;;;;;;;-145.63;50.55;39180.69;5011346;28;20369;-63
2023/09/28 05:58:16;;;;;;;16.58;10.63;;;;;;;-145.63;49.94;39120.06;5014507;28;20037;-64
2023/09/28 06:00:42;;;;;;;16.70;11.27;;;;;;;-145.63;49.62;39188.53;5024743;28;20037;-64
2023/09/28 06:03:08;;;;;;;12.20;10.43;;;;;;;-145.63;49.47;39145.50;5025148;28;20032;-64
2023/09/28 06:05:33;;;;;;;15.02;11.13;;;;;;;-145.63;49.23;39129.84;5024324;28;20199;-64
2023/09/28 06:08:00;;;;;;;11.00;9.40;;;;;;;-145.63;48.71;39065.31;5009816;28;20030;-63
2023/09/28 06:10:26;;;;;;;12.40;8.68;;;;;;;-145.63;48.35;39065.31;5015350;28;20017;-64
2023/09/28 06:12:52;;;;;;;17.35;9.20;;;;;;;-145.63;47.42;39102.47;5038642;28;20025;-64
2023/09/28 06:15:18;;;;;;;14.00;8.90;;;;;;;-145.63;46.87;39102.47;5023670;28;20085;-64
2023/09/28 06:17:44;;;;;;;15.68;9.50;;;;;;;-145.63;46.89;39129.84;5004534;28;20069;-63
2023/09/28 06:20:10;;;;;;;11.63;7.20;;;;;;;-145.63;46.40;39018.38;5020648;28;20042;-64
2023/09/28 06:22:36;;;;;;;12.27;7.22;;;;;;;-145.63;46.11;39047.72;5012833;28;20026;-63
2023/09/28 06:25:02;;;;;;;14.35;6.97;;;;;;;-145.63;45.93;39059.44;5010314;28;20361;-63
2023/09/28 06:27:30;;;;;;;12.95;7.63;;;;;;;-145.63;45.48;39022.28;5016495;28;20042;-65
2023/09/28 06:29:56;;;;;;;10.57;6.75;;;;;;;-145.63;45.06;39030.13;5023645;28;20041;-63
2023/09/28 06:32:22;;;;;;;9.65;6.53;;;;;;;-145.63;44.59;39024.25;5024575;28;20036;-64
2023/09/28 06:34:48;;;;;;;10.90;7.20;;;;;;;-145.63;44.58;39024.25;5024031;28;20033;-63
2023/09/28 06:37:14;;;;;;;11.68;7.97;;;;;;;-145.63;43.38;38942.13;5015863;28;20065;-63
2023/09/28 06:39:40;;;;;;;12.68;8.52;;;;;;;-145.63;42.37;38930.38;5007856;28;20029;-64
2023/09/28 06:42:06;;;;;;;11.00;7.80;;;;;;;-145.63;42.58;38891.28;5023835;28;20333;-63
2023/09/28 06:44:34;;;;;;;9.00;6.03;;;;;;;-145.63;42.24;38908.88;5005278;28;20041;-64
2023/09/28 06:47:01;;;;;;;12.07;5.82;;;;;;;-145.63;40.96;38871.72;5004578;28;20022;-64
2023/09/28 06:49:27;;;;;;;6.93;5.70;;;;;;;-145.63;41.33;38842.38;5014053;28;20399;-65
2023/09/28 06:51:53;;;;;;;10.77;6.47;;;;;;;-145.63;40.79;38785.66;5030011;28;20109;-64
2023/09/28 06:54:20;;;;;;;10.95;6.45;;;;;;;-145.63;40.34;38748.50;5021976;28;20265;-65
2023/09/28 06:56:49;;;;;;;12.60;7.63;;;;;;;-145.63;39.15;38770.03;5003990;28;20027;-65
2023/09/28 06:59:15;;;;;;;10.80;7.28;;;;;;;-145.63;39.92;38773.94;5020562;28;20026;-64
2023/09/28 07:01:41;;;;;;;13.02;7.35;;;;;;;-145.63;39.79;38768.06;5023470;28;20040;-64
2023/09/28 07:04:06;;;;;;;12.60;7.45;;;;;;;-145.63;39.94;38773.94;5016518;28;20327;-64
2023/09/28 07:06:35;;;;;;;13.38;7.95;;;;;;;-145.63;39.42;38785.66;5006180;28;20026;-64
2023/09/28 07:09:02;;;;;;;11.38;7.13;;;;;;;-145.63;38.81;38764.16;5023620;28;20037;-64
2023/09/28 07:11:28;;;;;;;11.07;7.50;;;;;;;-145.63;39.84;38830.66;5024216;28;20306;-64
2023/09/28 07:13:54;;;;;;;12.57;7.10;;;;;;;-145.63;39.64;38797.41;5040983;28;20041;-64
2023/09/28 07:16:20;;;;;;;9.80;6.68;;;;;;;-145.63;39.52;38824.78;5034209;28;20317;-65
2023/09/28 07:18:45;;;;;;;12.73;6.40;;;;;;;-145.63;39.54;38803.28;5019271;28;20033;-63
2023/09/28 07:21:11;;;;;;;11.25;6.13;;;;;;;-145.63;39.26;38822.81;5003952;28;20026;-64
2023/09/28 07:23:39;;;;;;;12.10;6.80;;;;;;;-145.63;39.03;38779.81;5022767;28;20093;-64
2023/09/28 07:26:16;;;;;;;16.20;6.85;;;;;;;-145.63;38.64;38793.50;5007642;28;20049;-63
2023/09/28 07:28:44;;;;;;;9.25;5.70;;;;;;;-145.63;38.96;38775.91;5014991;28;20038;-63
2023/09/28 07:31:11;;;;;;;13.90;6.85;;;;;;;-145.63;38.52;38773.94;5029446;28;20037;-64
2023/09/28 07:33:39;;;;;;;13.45;5.97;;;;;;;-145.63;38.75;38779.81;5027176;28;20041;-63
2023/09/28 07:36:05;;;;;;;9.18;5.50;;;;;;;-145.63;39.05;38785.66;5023253;28;20072;-64
2023/09/28 07:38:33;;;;;;;7.90;5.30;;;;;;;-145.63;39.36;38760.25;5004561;28;20022;-64
2023/09/28 07:40:59;;;;;;;10.30;6.22;;;;;;;-145.63;38.94;38742.66;5024900;28;20030;-65
2023/09/28 07:43:25;;;;;;;12.38;5.72;;;;;;;-145.63;38.15;38736.78;5022893;28;20080;-63
2023/09/28 07:45:51;;;;;;;9.30;5.05;;;;;;;-145.63;38.69;38750.47;5022962;28;20093;-64
2023/09/28 07:48:17;;;;;;;6.57;4.97;;;;;;;-145.63;38.66;38730.91;5023429;28;20030;-65
2023/09/28 07:50:43;;;;;;;13.98;5.90;;;;;;;-145.63;38.54;38742.66;5009342;28;20033;-65
2023/09/28 07:53:08;;;;;;;8.13;5.43;;;;;;;-145.63;38.90;38768.06;5034480;28;20344;-65
2023/09/28 07:55:34;;;;;;;9.57;4.75;;;;;;;-145.63;38.52;38727.00;5032364;28;20032;-64
2023/09/28 07:58:00;;;;;;;8.32;5.03;;;;;;;-145.63;38.14;38727.00;5013154;28;20042;-65
2023/09/28 08:00:27;;;;;;;15.50;5.95;;;;;;;-145.63;37.76;38744.59;5015322;28;20025;-63
2023/09/28 08:02:53;;;;;;;9.82;5.30;;;;;;;-145.63;37.84;38736.78;5024094;28;20033;-63
2023/09/28 08:05:19;;;;;;;8.35;4.78;;;;;;;-145.63;38.14;38748.50;5026981;28;20038;-64
2023/09/28 08:07:45;;;;;;;7.55;4.72;;;;;;;-145.63;38.11;38719.19;5034479;28;20022;-63
2023/09/28 08:10:10;;;;;;;10.15;4.60;;;;;;;-145.63;38.07;38715.28;5019793;28;20037;-64
2023/09/28 08:12:37;;;;;;;6.53;4.10;;;;;;;-145.63;37.50;38691.81;5042401;28;20294;-64
2023/09/28 08:15:04;;;;;;;7.55;4.50;;;;;;;-145.63;37.09;38723.09;5025274;28;20025;-64
2023/09/28 08:17:33;;;;;;;8.85;4.60;;;;;;;-145.63;37.20;38689.84;5024159;28;20371;-65
2023/09/28 08:19:59;;;;;;;7.13;5.45;;;;;;;-145.63;37.21;38687.91;5014526;28;20034;-64
2023/09/28 08:22:24;;;;;;;7.10;4.53;;;;;;;-145.63;36.67;38680.06;5032201;28;20102;-64
2023/09/28 08:24:50;;;;;;;8.90;4.75;;;;;;;-145.63;36.89;38693.75;5013545;28;20369;-65
2023/09/28 08:27:16;;;;;;;7.18;4.32;;;;;;;-145.63;36.34;38642.91;5024651;28;20064;-63
2023/09/28 08:29:42;;;;;;;8.35;4.72;;;;;;;-145.63;35.97;38670.28;5007861;28;20042;-64
2023/09/28 08:32:08;;;;;;;7.82;4.82;;;;;;;-145.63;35.93;38678.13;5022197;28;20079;-64
2023/09/28 08:34:34;;;;;;;7.75;3.85;;;;;;;-145.63;36.25;38625.31;5016168;28;20065;-64
2023/09/28 08:37:03;;;;;;;8.18;4.70;;;;;;;-145.63;35.45;38613.59;5028636;28;20048;-64
2023/09/28 08:39:31;;;;;;;10.80;4.63;;;;;;;-145.63;35.25;38578.41;5011724;28;20171;-64
2023/09/28 08:42:01;;;;;;;10.82;4.47;;;;;;;-145.63;35.00;38494.31;5021670;28;20025;-63
2023/09/28 08:44:30;;;;;;;10.32;4.35;;;;;;;-145.63;33.40;38560.78;5025730;28;20021;-64
2023/09/28 08:47:00;;;;;;;8.52;4.88;;;;;;;-145.63;33.72;38478.66;5023475;28;20255;-64
2023/09/28 08:49:29;;;;;;;10.38;4.35;;;;;;;-145.63;33.59;38423.91;5020891;28;20038;-65
2023/09/28 08:51:55;;;;;;;10.98;4.63;;;;;;;-145.63;32.86;38400.47;5023553;28;20570;-65
2023/09/28 08:54:24;;;;;;;8.32;4.65;;;;;;;-145.63;32.76;38375.03;5025955;28;20045;-64
2023/09/28 08:56:52;;;;;;;6.60;4.68;;;;;;;-145.63;31.71;38326.16;5023559;28;20032;-65
2023/09/28 08:59:19;;;;;;;9.57;4.57;;;;;;;-145.63;32.12;38269.47;5010719;28;20037;-65
2023/09/28 09:01:46;;;;;;;11.75;5.03;;;;;;;-145.63;31.25;38289.00;5021316;28;20025;-64
2023/09/28 09:04:12;;;;;;;6.80;4.00;;;;;;;-145.63;31.64;38265.53;5025207;28;20199;-65
2023/09/28 09:06:41;;;;;;;6.47;4.60;;;;;;;-145.63;30.86;38195.16;5023334;28;20025;-64
2023/09/28 09:09:06;;;;;;;9.55;5.15;;;;;;;-145.63;30.46;38263.59;5006034;28;20109;-64
2023/09/28 09:11:37;;;;;;;7.30;4.35;;;;;;;-145.63;30.53;38185.38;5026559;28;20021;-65
2023/09/28 09:14:02;;;;;;;10.90;4.13;;;;;;;-145.63;30.63;38261.63;5031198;28;20030;-64
2023/09/28 09:16:30;;;;;;;7.38;4.38;;;;;;;-145.63;30.46;38261.63;5019628;28;20234;-66
2023/09/28 09:18:58;;;;;;;7.78;4.40;;;;;;;-145.63;31.13;38261.63;5010179;28;20018;-64
2023/09/28 09:21:24;;;;;;;7.25;4.43;;;;;;;-145.63;30.94;38210.81;5025399;28;20030;-65
2023/09/28 09:24:05;;;;;;;8.93;4.45;;;;;;;-145.63;30.27;38218.63;5021954;28;20037;-65
2023/09/28 09:26:42;;;;;;;8.15;4.40;;;;;;;-145.63;30.99;38314.44;5025450;28;20073;-65
2023/09/28 09:29:10;;;;;;;7.03;4.40;;;;;;;-145.63;31.41;37534.34;5022509;28;20057;-65
2023/09/28 09:31:40;;;;;;;6.55;4.43;;;;;;;-145.63;32.02;38261.63;5030281;28;20037;-64
2023/09/28 09:34:11;;;;;;;8.40;4.30;;;;;;;-145.63;31.40;38330.06;5039638;28;20034;-64
2023/09/28 09:36:38;;;;;;;11.95;4.00;;;;;;;-145.63;31.30;38367.22;5023527;28;20026;-66
2023/09/28 09:39:04;;;;;;;7.82;4.07;;;;;;;-145.63;31.66;38369.19;5005873;28;20033;-65
2023/09/28 09:41:30;;;;;;;7.82;4.03;;;;;;;-145.63;32.15;38363.31;5022279;28;20053;-64
2023/09/28 09:43:58;;;;;;;9.15;4.35;;;;;;;-145.63;31.42;38355.50;5024545;28;20034;-63
2023/09/28 09:46:26;;;;;;;10.65;3.72;;;;;;;-145.63;32.34;38435.66;5025151;28;20245;-67
2023/09/28 09:48:53;;;;;;;8.30;3.97;;;;;;;-145.63;31.47;38396.53;5021638;28;20326;-63
2023/09/28 09:51:19;;;;;;;8.88;4.15;;;;;;;-145.63;31.69;38398.50;5022295;28;20306;-64
2023/09/28 09:53:46;;;;;;;7.05;3.90;;;;;;;-145.63;31.85;38404.38;5025233;28;20037;-65
2023/09/28 09:56:13;;;;;;;10.65;4.85;;;;;;;-145.63;32.01;38412.19;5022520;28;20033;-65
2023/09/28 09:58:49;;;;;;;6.38;3.67;;;;;;;-145.63;31.71;38396.53;5024373;28;20029;-63
2023/09/28 10:01:20;;;;;;;6.50;4.18;;;;;;;-145.63;32.53;38371.13;5024871;28;20095;-65
2023/09/28 10:03:51;;;;;;;5.90;3.80;;;;;;;-145.63;32.15;38396.53;5024382;28;20030;-64
2023/09/28 10:06:19;;;;;;;6.73;4.10;;;;;;;-145.63;32.76;38400.47;5044526;28;20032;-64
2023/09/28 10:08:53;;;;;;;9.25;3.85;;;;;;;-145.63;31.98;38390.69;5006737;28;20463;-64
2023/09/28 10:11:19;;;;;;;10.52;4.28;;;;;;;-145.63;31.91;38433.69;5020108;28;20332;-63
2023/09/28 10:13:48;;;;;;;6.72;4.25;;;;;;;-145.63;31.90;38388.72;5024310;28;20025;-64
2023/09/28 10:16:17;;;;;;;7.95;5.65;;;;;;;-145.63;32.38;38451.28;5018010;28;20319;-64
2023/09/28 10:18:47;;;;;;;7.80;4.53;;;;;;;-145.63;32.60;38378.94;5004794;28;20307;-64
2023/09/28 10:21:16;;;;;;;5.78;3.97;;;;;;;-145.63;30.76;38410.22;5012484;28;20079;-64
2023/09/28 10:23:42;;;;;;;7.13;3.90;;;;;;;-145.63;31.00;38396.53;5023691;28;20279;-65
2023/09/28 10:26:15;;;;;;;6.85;4.00;;;;;;;-145.63;32.03;38441.53;5019475;28;20270;-65
2023/09/28 10:29:17;;;;;;;6.10;3.60;;;;;;;-145.63;31.36;38380.91;5021825;28;20033;-65
2023/09/28 10:31:43;;;;;;;;;;;;;;;-145.63;31.62;38429.78;5022354;28;20057;-65
2023/09/28 10:34:16;;;;;;;6.72;4.00;;;;;;;-145.63;31.81;38384.81;5024258;28;19940;-64
2023/09/28 10:36:42;;;;;;;6.82;4.07;;;;;;;-145.63;31.24;38484.53;5022301;28;20072;-65
2023/09/28 10:39:14;;;;;;;5.53;3.50;;;;;;;-145.63;31.76;38396.53;5004145;28;20033;-65
2023/09/28 10:41:49;;;;;;;6.30;4.13;;;;;;;-145.63;31.40;38377.00;5021578;28;20049;-65
2023/09/28 10:44:17;;;;;;;6.43;3.58;;;;;;;-145.63;31.56;38402.41;5018987;28;20037;-64
2023/09/28 10:46:45;;;;;;;5.78;4.03;;;;;;;-145.63;31.57;38386.78;5020770;28;20040;-64
2023/09/28 10:49:29;;;;;;;6.00;3.78;;;;;;;-145.63;30.37;38382.88;5021267;28;20102;-64
2023/09/28 10:51:57;;;;;;;8.85;4.18;;;;;;;-145.63;31.17;38398.50;5019436;28;20069;-64
2023/09/28 10:54:27;;;;;;;8.93;4.18;;;;;;;-145.63;31.00;38421.97;5022252;28;20018;-64
2023/09/28 10:56:53;;;;;;;7.15;3.58;;;;;;;-145.63;30.83;38363.31;5023841;28;20026;-65
2023/09/28 10:59:19;;;;;;;5.25;3.75;;;;;;;-145.63;31.08;38386.78;5009098;28;20083;-65
2023/09/28 11:01:46;;;;;;;7.97;3.60;;;;;;;-145.63;30.74;38386.78;5023537;28;20337;-64
2023/09/28 11:04:13;;;;;;;7.00;3.50;;;;;;;-145.63;30.52;38396.53;5023753;28;20052;-66
2023/09/28 11:06:41;;;;;;;9.48;3.67;;;;;;;-145.63;29.32;38378.94;5033082;28;20025;-65
2023/09/28 11:09:09;;;;;;;9.15;3.95;;;;;;;-145.63;30.10;38386.78;5023734;28;20025;-64
2023/09/28 11:11:39;;;;;;;5.53;3.72;;;;;;;-145.63;29.93;38339.84;5008376;28;20030;-64
2023/09/28 11:14:07;;;;;;;7.03;3.92;;;;;;;-145.63;30.40;38384.81;5018138;28;20564;-65